createdAt,value
2023-09-26T00:01:00.914Z,99317.45
2023-09-26T00:03:28.355Z,99318.73
2023-09-26T00:05:58.216Z,99315.70
2023-09-26T00:08:25.892Z,99316.05
2023-09-26T00:10:54.547Z,99320.63
2023-09-26T00:13:21.967Z,99317.02
2023-09-26T00:15:49.465Z,99315.23
2023-09-26T00:18:17.058Z,99313.72
2023-09-26T00:20:45.696Z,99320.15
2023-09-26T00:23:13.447Z,99321.70
2023-09-26T00:25:40.858Z,99317.27
2023-09-26T00:28:08.552Z,99312.30
2023-09-26T00:30:36.097Z,99313.98
2023-09-26T00:33:03.768Z,99309.50
2023-09-26T00:35:31.187Z,99311.02
2023-09-26T00:37:59.546Z,99307.30
2023-09-26T00:40:27.095Z,99311.02
2023-09-26T00:42:54.481Z,99311.02
2023-09-26T00:45:21.986Z,99310.84
2023-09-26T00:47:49.757Z,99309.63
2023-09-26T00:50:17.870Z,99310.45
2023-09-26T00:52:47.929Z,99313.89
2023-09-26T00:55:18.008Z,99319.66
2023-09-26T00:57:45.777Z,99321.69
2023-09-26T01:00:15.838Z,99323.77
2023-09-26T01:02:44.040Z,99324.89
2023-09-26T01:05:13.821Z,99321.14
2023-09-26T01:07:41.251Z,99318.42
2023-09-26T01:10:08.973Z,99314.62
2023-09-26T01:12:37.127Z,99314.02
2023-09-26T01:15:05.156Z,99316.74
2023-09-26T01:17:33.595Z,99318.59
2023-09-26T01:20:01.303Z,99322.45
2023-09-26T01:22:28.934Z,99322.61
2023-09-26T01:24:56.315Z,99319.38
2023-09-26T01:27:23.818Z,99318.38
2023-09-26T01:29:52.637Z,99319.83
2023-09-26T01:32:20.061Z,99318.19
2023-09-26T01:34:47.451Z,99315.23
2023-09-26T01:37:15.020Z,99313.45
2023-09-26T01:39:42.454Z,99311.28
2023-09-26T01:42:09.804Z,99308.61
2023-09-26T01:44:37.184Z,99309.30
2023-09-26T01:47:04.734Z,99311.31
2023-09-26T01:49:32.317Z,99309.08
2023-09-26T01:51:59.805Z,99313.84
2023-09-26T01:54:27.469Z,99312.74
2023-09-26T01:56:55.118Z,99309.70
2023-09-26T01:59:23.125Z,99309.89
2023-09-26T02:01:50.846Z,99310.38
2023-09-26T02:04:18.288Z,99311.14
2023-09-26T02:06:45.749Z,99307.05
2023-09-26T02:09:13.252Z,99310.84
2023-09-26T02:11:40.588Z,99309.64
2023-09-26T02:14:09.147Z,99306.55
2023-09-26T02:16:36.822Z,99305.20
2023-09-26T02:19:06.513Z,99303.16
2023-09-26T02:21:34.201Z,99305.48
2023-09-26T02:24:01.605Z,99306.84
2023-09-26T02:26:29.009Z,99304.31
2023-09-26T02:28:56.334Z,99305.37
2023-09-26T02:31:23.792Z,99307.11
2023-09-26T02:33:51.626Z,99309.10
2023-09-26T02:36:19.104Z,99310.97
2023-09-26T02:38:46.540Z,99309.77
2023-09-26T02:41:14.380Z,99308.02
2023-09-26T02:43:41.804Z,99309.94
2023-09-26T02:46:09.875Z,99309.83
2023-09-26T02:48:39.017Z,99308.98
2023-09-26T02:51:06.526Z,99306.96
2023-09-26T02:53:33.922Z,99304.70
2023-09-26T02:56:01.444Z,99305.33
2023-09-26T02:58:28.890Z,99307.55
2023-09-26T03:00:56.598Z,99310.00
2023-09-26T03:03:24.185Z,99313.84
2023-09-26T03:05:53.555Z,99315.17
2023-09-26T03:08:21.008Z,99316.72
2023-09-26T03:10:49.193Z,99313.48
2023-09-26T03:13:16.711Z,99314.48
2023-09-26T03:15:44.135Z,99321.41
2023-09-26T03:18:11.586Z,99323.98
2023-09-26T03:20:40.419Z,99323.77
2023-09-26T03:23:07.858Z,99324.65
2023-09-26T03:25:35.342Z,99323.98
2023-09-26T03:28:05.001Z,99327.74
2023-09-26T03:30:32.483Z,99327.21
2023-09-26T03:32:59.940Z,99331.73
2023-09-26T03:35:27.401Z,99333.52
2023-09-26T03:37:54.756Z,99330.16
2023-09-26T03:40:22.215Z,99333.49
2023-09-26T03:42:49.718Z,99335.27
2023-09-26T03:45:17.254Z,99335.70
2023-09-26T03:47:44.674Z,99337.15
2023-09-26T03:50:12.158Z,99340.71
2023-09-26T03:52:39.490Z,99346.58
2023-09-26T03:55:08.107Z,99351.63
2023-09-26T03:57:35.989Z,99349.81
2023-09-26T04:00:14.020Z,99352.59
2023-09-26T04:02:41.671Z,99348.58
2023-09-26T04:05:09.193Z,99350.42
2023-09-26T04:07:37.778Z,99350.52
2023-09-26T04:10:07.114Z,99352.15
2023-09-26T04:12:35.229Z,99347.55
2023-09-26T04:15:02.698Z,99348.73
2023-09-26T04:17:30.887Z,99349.00
2023-09-26T04:19:58.917Z,99343.59
2023-09-26T04:22:26.589Z,99346.77
2023-09-26T04:24:54.586Z,99345.80
2023-09-26T04:27:27.547Z,99346.90
2023-09-26T04:30:00.413Z,99345.35
2023-09-26T04:32:28.049Z,99342.27
2023-09-26T04:34:55.565Z,99343.44
2023-09-26T04:37:23.015Z,99345.95
2023-09-26T04:39:50.602Z,99349.40
2023-09-26T04:42:18.059Z,99350.12
2023-09-26T04:44:45.453Z,99351.05
2023-09-26T04:47:12.894Z,99350.45
2023-09-26T04:49:40.923Z,99355.97
2023-09-26T04:52:08.477Z,99359.27
2023-09-26T04:54:36.282Z,99354.47
2023-09-26T04:57:03.726Z,99353.95
2023-09-26T04:59:31.217Z,99353.03
2023-09-26T05:01:58.663Z,99354.95
2023-09-26T05:04:26.969Z,99350.45
2023-09-26T05:06:55.044Z,99356.23
2023-09-26T05:09:23.406Z,99357.15
2023-09-26T05:11:50.786Z,99357.21
2023-09-26T05:14:18.240Z,99357.48
2023-09-26T05:16:45.841Z,99360.16
2023-09-26T05:19:13.354Z,99360.27
2023-09-26T05:21:40.780Z,99363.09
2023-09-26T05:24:11.720Z,99364.91
2023-09-26T05:26:39.170Z,99364.41
2023-09-26T05:29:06.977Z,99366.21
2023-09-26T05:31:34.490Z,99370.91
2023-09-26T05:34:02.175Z,99374.46
2023-09-26T05:36:29.721Z,99374.98
2023-09-26T05:38:57.114Z,99372.77
2023-09-26T05:41:24.466Z,99376.96
2023-09-26T05:43:52.057Z,99378.09
2023-09-26T05:46:19.798Z,99382.62
2023-09-26T05:48:52.340Z,99384.65
2023-09-26T05:51:20.242Z,99385.08
2023-09-26T05:53:47.974Z,99381.86
2023-09-26T05:56:15.428Z,99381.57
2023-09-26T05:58:42.911Z,99382.12
2023-09-26T06:01:10.695Z,99384.42
2023-09-26T06:03:38.347Z,99390.80
2023-09-26T06:06:05.993Z,99393.55
2023-09-26T06:08:35.036Z,99393.16
2023-09-26T06:11:03.808Z,99393.25
2023-09-26T06:13:32.622Z,99389.38
2023-09-26T06:16:00.089Z,99390.00
2023-09-26T06:18:28.539Z,99393.26
2023-09-26T06:20:56.024Z,99393.31
2023-09-26T06:23:23.439Z,99391.09
2023-09-26T06:26:00.733Z,99394.45
2023-09-26T06:28:28.846Z,99395.84
2023-09-26T06:30:57.454Z,99397.88
2023-09-26T06:33:25.170Z,99400.05
2023-09-26T06:35:52.891Z,99398.00
2023-09-26T06:38:20.985Z,99398.30
2023-09-26T06:40:48.578Z,99398.44
2023-09-26T06:43:16.110Z,99398.89
2023-09-26T06:45:43.551Z,99401.87
2023-09-26T06:48:11.165Z,99402.86
2023-09-26T06:50:43.380Z,99402.13
2023-09-26T06:53:10.934Z,99404.66
2023-09-26T06:55:40.757Z,99403.34
2023-09-26T06:58:08.603Z,99405.13
2023-09-26T07:00:37.135Z,99407.85
2023-09-26T07:03:05.492Z,99409.28
2023-09-26T07:05:33.330Z,99408.25
2023-09-26T07:08:00.793Z,99410.42
2023-09-26T07:10:28.470Z,99411.66
2023-09-26T07:12:55.909Z,99412.80
2023-09-26T07:15:26.702Z,99413.91
2023-09-26T07:17:54.111Z,99415.75
2023-09-26T07:20:22.922Z,99416.04
2023-09-26T07:22:51.276Z,99417.91
2023-09-26T07:25:18.785Z,99420.83
2023-09-26T07:27:47.764Z,99427.52
2023-09-26T07:30:16.192Z,99431.77
2023-09-26T07:32:43.615Z,99428.67
2023-09-26T07:35:11.034Z,99424.54
2023-09-26T07:37:38.491Z,99424.54
2023-09-26T07:40:10.493Z,99424.16
2023-09-26T07:42:38.257Z,99426.06
2023-09-26T07:45:06.292Z,99425.98
2023-09-26T07:47:33.757Z,99429.64
2023-09-26T07:50:02.626Z,99430.40
2023-09-26T07:52:33.409Z,99430.88
2023-09-26T07:55:00.831Z,99432.13
2023-09-26T07:57:28.328Z,99431.95
2023-09-26T07:59:55.732Z,99436.89
2023-09-26T08:02:23.180Z,99434.25
2023-09-26T08:04:53.236Z,99437.98
2023-09-26T08:07:20.730Z,99439.46
2023-09-26T08:09:48.233Z,99437.13
2023-09-26T08:12:15.798Z,99435.25
2023-09-26T08:14:43.273Z,99435.05
2023-09-26T08:17:10.691Z,99435.38
2023-09-26T08:19:38.176Z,99432.85
2023-09-26T08:22:05.664Z,99431.11
2023-09-26T08:24:33.129Z,99431.64
2023-09-26T08:27:00.588Z,99435.39
2023-09-26T08:29:28.733Z,99439.64
2023-09-26T08:31:56.171Z,99439.66
2023-09-26T08:34:24.345Z,99441.84
2023-09-26T08:36:53.746Z,99440.60
2023-09-26T08:39:21.433Z,99440.42
2023-09-26T08:41:51.245Z,99440.15
2023-09-26T08:44:19.247Z,99437.89
2023-09-26T08:46:46.744Z,99436.92
2023-09-26T08:49:14.480Z,99439.91
2023-09-26T08:51:42.172Z,99438.05
2023-09-26T08:54:11.475Z,99435.83
2023-09-26T08:56:41.104Z,99439.67
2023-09-26T08:59:10.211Z,99441.09
2023-09-26T09:01:37.946Z,99441.02
2023-09-26T09:04:05.731Z,99442.90
2023-09-26T09:06:33.264Z,99442.45
2023-09-26T09:09:10.734Z,99443.69
2023-09-26T09:11:38.348Z,99441.71
2023-09-26T09:14:07.402Z,99440.55
2023-09-26T09:16:35.063Z,99445.76
2023-09-26T09:19:02.666Z,99444.50
2023-09-26T09:21:31.926Z,99439.42
2023-09-26T09:24:05.877Z,99440.95
2023-09-26T09:26:35.983Z,99442.02
2023-09-26T09:29:18.006Z,99440.13
2023-09-26T09:31:45.714Z,99432.45
2023-09-26T09:34:13.563Z,99430.21
2023-09-26T09:36:41.143Z,99430.48
2023-09-26T09:39:11.657Z,99431.29
2023-09-26T09:41:39.777Z,99427.54
2023-09-26T09:44:07.333Z,99427.36
2023-09-26T09:48:04.519Z,99425.47
2023-09-26T09:50:33.111Z,99424.71
2023-09-26T09:53:02.782Z,99422.45
2023-09-26T09:55:34.662Z,99423.29
2023-09-26T09:58:03.934Z,99421.52
2023-09-26T10:00:33.213Z,99416.48
2023-09-26T10:03:07.166Z,99414.02
2023-09-26T10:05:37.932Z,99412.67
2023-09-26T10:08:06.506Z,99410.66
2023-09-26T10:10:33.920Z,99408.96
2023-09-26T10:13:32.371Z,99405.90
2023-09-26T10:16:07.275Z,99402.30
2023-09-26T10:18:38.512Z,99402.94
2023-09-26T10:21:29.534Z,99397.55
2023-09-26T10:24:06.174Z,99393.02
2023-09-26T10:26:34.537Z,99390.10
2023-09-26T10:29:05.816Z,99386.96
2023-09-26T10:31:38.296Z,99381.28
2023-09-26T10:34:07.026Z,99380.69
2023-09-26T10:36:38.739Z,99377.90
2023-09-26T10:39:07.160Z,99372.23
2023-09-26T10:41:46.327Z,99368.73
2023-09-26T10:44:22.134Z,99368.81
2023-09-26T10:46:49.664Z,99367.67
2023-09-26T10:49:17.244Z,99368.92
2023-09-26T10:51:44.927Z,99370.41
2023-09-26T10:54:12.357Z,99367.89
2023-09-26T10:56:47.449Z,99367.98
2023-09-26T10:59:18.764Z,99364.09
2023-09-26T11:01:49.239Z,99362.07
2023-09-26T11:04:17.195Z,99359.55
2023-09-26T11:06:45.478Z,99359.54
2023-09-26T11:09:13.607Z,99357.40
2023-09-26T11:11:41.988Z,99351.41
2023-09-26T11:14:09.435Z,99348.61
2023-09-26T11:16:36.886Z,99345.32
2023-09-26T11:19:04.669Z,99341.15
2023-09-26T11:21:32.455Z,99340.42
2023-09-26T11:24:00.709Z,99342.13
2023-09-26T11:26:28.100Z,99340.21
2023-09-26T11:28:56.165Z,99336.48
2023-09-26T11:31:25.020Z,99336.75
2023-09-26T11:33:52.876Z,99335.11
2023-09-26T11:36:20.469Z,99335.00
2023-09-26T11:38:49.381Z,99333.50
2023-09-26T11:41:17.230Z,99334.73
2023-09-26T11:43:48.880Z,99331.63
2023-09-26T11:46:16.701Z,99331.13
2023-09-26T11:48:44.528Z,99332.69
2023-09-26T11:51:12.041Z,99328.02
2023-09-26T11:53:39.626Z,99325.98
2023-09-26T11:56:08.718Z,99325.49
2023-09-26T11:58:38.108Z,99323.79
2023-09-26T12:01:06.243Z,99320.27
2023-09-26T12:03:33.901Z,99317.41
2023-09-26T12:06:02.716Z,99310.92
2023-09-26T12:08:30.548Z,99308.73
2023-09-26T12:10:59.380Z,99304.48
2023-09-26T12:13:27.095Z,99303.77
2023-09-26T12:15:54.763Z,99305.28
2023-09-26T12:18:22.370Z,99297.66
2023-09-26T12:20:56.993Z,99296.99
2023-09-26T12:23:25.754Z,99292.88
2023-09-26T12:25:53.430Z,99292.20
2023-09-26T12:28:23.317Z,99289.14
2023-09-26T12:30:51.653Z,99286.11
2023-09-26T12:33:19.260Z,99281.23
2023-09-26T12:35:46.834Z,99277.44
2023-09-26T12:38:14.354Z,99274.38
2023-09-26T12:40:42.131Z,99274.81
2023-09-26T12:43:09.686Z,99271.46
2023-09-26T12:45:37.247Z,99275.75
2023-09-26T12:48:05.348Z,99272.63
2023-09-26T12:50:41.967Z,99271.52
2023-09-26T12:53:09.554Z,99269.84
2023-09-26T12:55:37.206Z,99269.34
2023-09-26T12:58:05.021Z,99267.88
2023-09-26T13:00:34.955Z,99268.23
2023-09-26T13:03:02.612Z,99264.52
2023-09-26T13:05:30.316Z,99261.51
2023-09-26T13:07:57.932Z,99260.59
2023-09-26T13:16:57.302Z,99254.40
2023-09-26T13:19:26.367Z,99256.23
2023-09-26T13:21:55.782Z,99255.77
2023-09-26T13:24:27.850Z,99253.20
2023-09-26T13:26:56.588Z,99253.42
2023-09-26T13:29:25.986Z,99253.65
2023-09-26T13:31:53.846Z,99247.02
2023-09-26T13:34:21.692Z,99246.17
2023-09-26T13:36:49.201Z,99248.89
2023-09-26T13:39:17.298Z,99247.46
2023-09-26T13:41:44.901Z,99246.14
2023-09-26T13:44:13.017Z,99245.17
2023-09-26T13:46:41.036Z,99246.48
2023-09-26T13:49:09.917Z,99245.50
2023-09-26T13:51:37.706Z,99245.45
2023-09-26T13:54:07.740Z,99245.89
2023-09-26T13:56:35.371Z,99242.75
2023-09-26T13:59:02.950Z,99241.82
2023-09-26T14:01:30.462Z,99239.29
2023-09-26T14:03:58.703Z,99236.55
2023-09-26T14:06:26.790Z,99236.64
2023-09-26T14:08:54.369Z,99237.69
2023-09-26T14:11:22.273Z,99237.52
2023-09-26T14:13:49.796Z,99234.71
2023-09-26T14:16:17.557Z,99237.56
2023-09-26T14:18:45.222Z,99231.36
2023-09-26T14:21:15.763Z,99230.70
2023-09-26T14:23:43.558Z,99229.21
2023-09-26T14:26:11.552Z,99229.66
2023-09-26T14:28:42.772Z,99227.80
2023-09-26T14:31:10.853Z,99227.62
2023-09-26T14:33:38.759Z,99228.63
2023-09-26T14:36:09.061Z,99230.94
2023-09-26T14:38:36.637Z,99231.11
2023-09-26T14:41:04.167Z,99229.41
2023-09-26T14:43:31.802Z,99228.10
2023-09-26T14:45:59.360Z,99227.90
2023-09-26T14:48:26.935Z,99224.89
2023-09-26T14:50:56.558Z,99224.02
2023-09-26T14:53:24.101Z,99221.40
2023-09-26T14:55:51.870Z,99221.52
2023-09-26T14:58:20.559Z,99222.17
2023-09-26T15:00:48.424Z,99221.50
2023-09-26T15:03:17.252Z,99218.55
2023-09-26T15:05:46.194Z,99217.96
2023-09-26T15:08:17.427Z,99223.90
2023-09-26T15:10:45.002Z,99221.00
2023-09-26T15:13:13.640Z,99217.39
2023-09-26T15:15:43.565Z,99215.59
2023-09-26T15:18:12.181Z,99214.07
2023-09-26T15:20:42.243Z,99216.16
2023-09-26T15:23:10.951Z,99216.61
2023-09-26T15:25:38.548Z,99210.86
2023-09-26T15:28:06.297Z,99211.64
2023-09-26T15:30:33.750Z,99212.59
2023-09-26T15:33:01.500Z,99214.90
2023-09-26T15:35:29.473Z,99211.60
2023-09-26T15:37:56.924Z,99211.21
2023-09-26T15:40:29.405Z,99212.33
2023-09-26T15:42:56.883Z,99213.54
2023-09-26T15:45:24.294Z,99210.20
2023-09-26T15:47:54.313Z,99212.51
2023-09-26T15:50:21.986Z,99209.92
2023-09-26T15:52:54.390Z,99211.89
2023-09-26T15:55:21.854Z,99214.64
2023-09-26T15:57:49.259Z,99214.85
2023-09-26T16:00:17.701Z,99213.25
2023-09-26T16:02:45.221Z,99215.60
2023-09-26T16:05:12.789Z,99218.14
2023-09-26T16:07:40.834Z,99221.20
2023-09-26T16:10:10.340Z,99221.26
2023-09-26T16:12:43.287Z,99220.47
2023-09-26T16:15:18.815Z,99223.52
2023-09-26T16:17:46.343Z,99222.97
2023-09-26T16:20:14.034Z,99227.67
2023-09-26T16:22:42.205Z,99231.89
2023-09-26T16:25:10.165Z,99229.96
2023-09-26T16:27:37.549Z,99231.91
2023-09-26T16:30:05.617Z,99228.39
2023-09-26T16:32:33.393Z,99229.76
2023-09-26T16:35:00.973Z,99230.16
2023-09-26T16:37:28.743Z,99229.39
2023-09-26T16:39:56.336Z,99233.22
2023-09-26T16:42:24.028Z,99233.04
2023-09-26T16:44:51.575Z,99239.10
2023-09-26T16:47:19.168Z,99242.80
2023-09-26T16:49:46.924Z,99243.26
2023-09-26T16:52:14.401Z,99245.30
2023-09-26T16:54:41.870Z,99252.00
2023-09-26T16:57:09.770Z,99251.88
2023-09-26T16:59:37.265Z,99253.29
2023-09-26T17:02:04.800Z,99256.91
2023-09-26T17:04:32.933Z,99258.45
2023-09-26T17:07:00.709Z,99262.64
2023-09-26T17:09:28.320Z,99261.76
2023-09-26T17:11:55.992Z,99265.26
2023-09-26T17:14:24.903Z,99268.45
2023-09-26T17:16:52.455Z,99271.05
2023-09-26T17:19:19.982Z,99269.22
2023-09-26T17:21:47.867Z,99271.18
2023-09-26T17:24:15.412Z,99272.48
2023-09-26T17:26:44.058Z,99273.92
2023-09-26T17:29:12.303Z,99271.54
2023-09-26T17:31:40.404Z,99274.92
2023-09-26T17:34:07.979Z,99271.04
2023-09-26T17:36:35.545Z,99270.73
2023-09-26T17:39:03.505Z,99270.61
2023-09-26T17:41:31.844Z,99275.08
2023-09-26T17:44:00.009Z,99276.56
2023-09-26T17:46:28.798Z,99275.14
2023-09-26T17:48:56.277Z,99276.95
2023-09-26T17:51:23.897Z,99279.29
2023-09-26T17:53:51.395Z,99280.70
2023-09-26T17:56:18.958Z,99285.95
2023-09-26T17:58:46.665Z,99284.23
2023-09-26T18:01:14.667Z,99287.28
2023-09-26T18:03:42.321Z,99287.69
2023-09-26T18:06:09.884Z,99288.61
2023-09-26T18:08:37.550Z,99290.36
2023-09-26T18:11:05.504Z,99287.27
2023-09-26T18:13:33.080Z,99285.54
2023-09-26T18:16:00.739Z,99287.02
2023-09-26T18:18:28.437Z,99282.91
2023-09-26T18:20:56.057Z,99285.41
2023-09-26T18:23:23.684Z,99286.16
2023-09-26T18:25:51.485Z,99287.55
2023-09-26T18:28:19.552Z,99290.05
2023-09-26T18:30:47.039Z,99290.45
2023-09-26T18:33:14.561Z,99292.87
2023-09-26T18:35:42.139Z,99290.69
2023-09-26T18:38:10.706Z,99291.08
2023-09-26T18:40:38.255Z,99292.34
2023-09-26T18:43:05.846Z,99291.12
2023-09-26T18:45:33.332Z,99292.44
2023-09-26T18:48:00.878Z,99296.13
2023-09-26T18:50:28.419Z,99296.69
2023-09-26T18:52:55.967Z,99295.61
2023-09-26T18:55:23.483Z,99295.17
2023-09-26T18:57:50.919Z,99297.16
2023-09-26T19:00:18.532Z,99299.19
2023-09-26T19:02:46.398Z,99301.55
2023-09-26T19:05:14.719Z,99303.42
2023-09-26T19:07:42.397Z,99300.52
2023-09-26T19:10:10.238Z,99300.17
2023-09-26T19:12:37.907Z,99302.67
2023-09-26T19:15:05.836Z,99303.80
2023-09-26T19:17:33.330Z,99303.23
2023-09-26T19:20:00.835Z,99299.08
2023-09-26T19:22:28.452Z,99297.08
2023-09-26T19:24:55.896Z,99299.08
2023-09-26T19:27:23.356Z,99298.24
2023-09-26T19:29:50.727Z,99298.27
2023-09-26T19:32:18.239Z,99297.91
2023-09-26T19:34:45.744Z,99303.70
2023-09-26T19:37:13.394Z,99303.04
2023-09-26T19:39:40.751Z,99300.96
2023-09-26T19:42:08.491Z,99297.44
2023-09-26T19:44:36.233Z,99303.98
2023-09-26T19:47:03.794Z,99302.95
2023-09-26T19:49:32.076Z,99298.92
2023-09-26T19:51:59.536Z,99300.97
2023-09-26T19:54:26.927Z,99302.40
2023-09-26T19:56:54.676Z,99305.45
2023-09-26T19:59:22.259Z,99302.23
2023-09-26T20:01:49.893Z,99299.69
2023-09-26T20:04:17.558Z,99298.42
2023-09-26T20:06:44.933Z,99295.24
2023-09-26T20:09:13.002Z,99298.11
2023-09-26T20:11:40.473Z,99295.46
2023-09-26T20:14:07.906Z,99293.59
2023-09-26T20:16:35.398Z,99291.91
2023-09-26T20:19:03.117Z,99295.77
2023-09-26T20:21:30.514Z,99297.80
2023-09-26T20:23:58.185Z,99296.80
2023-09-26T20:26:25.642Z,99299.45
2023-09-26T20:28:53.839Z,99301.55
2023-09-26T20:31:21.437Z,99299.46
2023-09-26T20:33:48.822Z,99295.41
2023-09-26T20:36:16.351Z,99296.73
2023-09-26T20:38:44.022Z,99296.27
2023-09-26T20:41:11.439Z,99300.56
2023-09-26T20:43:41.850Z,99300.33
2023-09-26T20:46:10.456Z,99299.37
2023-09-26T20:48:37.964Z,99300.09
2023-09-26T20:51:06.680Z,99301.38
2023-09-26T20:53:34.154Z,99302.84
2023-09-26T20:56:05.563Z,99302.54
2023-09-26T20:58:34.111Z,99303.42
2023-09-26T21:01:09.097Z,99306.40
2023-09-26T21:03:37.101Z,99306.16
2023-09-26T21:06:04.830Z,99306.12
2023-09-26T21:08:35.006Z,99303.63
2023-09-26T21:11:03.142Z,99308.27
2023-09-26T21:13:31.523Z,99308.38
2023-09-26T21:16:16.230Z,99309.40
2023-09-26T21:18:45.933Z,99310.27
2023-09-26T21:21:21.711Z,99313.67
2023-09-26T21:23:50.005Z,99312.29
2023-09-26T21:26:17.934Z,99313.02
2023-09-26T21:28:45.748Z,99309.31
2023-09-26T21:31:13.132Z,99309.31
2023-09-26T21:33:40.483Z,99308.13
2023-09-26T21:36:08.130Z,99306.33
2023-09-26T21:38:35.735Z,99305.77
2023-09-26T21:41:03.833Z,99305.23
2023-09-26T21:43:31.498Z,99307.33
2023-09-26T21:45:58.998Z,99304.68
2023-09-26T21:48:26.462Z,99301.42
2023-09-26T21:50:53.879Z,99300.15
2023-09-26T21:53:21.263Z,99300.45
2023-09-26T21:55:48.864Z,99300.01
2023-09-26T21:58:16.570Z,99300.56
2023-09-26T22:00:43.921Z,99297.22
2023-09-26T22:05:39.310Z,99292.70
2023-09-26T22:08:06.990Z,99290.10
2023-09-26T22:10:35.004Z,99291.55
2023-09-26T22:13:03.168Z,99290.39
2023-09-26T22:15:30.617Z,99287.68
2023-09-26T22:17:58.621Z,99293.71
2023-09-26T22:20:34.021Z,99294.30
2023-09-26T22:23:02.019Z,99293.73
2023-09-26T22:25:29.556Z,99294.36
2023-09-26T22:27:57.134Z,99296.27
2023-09-26T22:30:24.894Z,99297.19
2023-09-26T22:32:52.409Z,99295.70
2023-09-26T22:35:20.201Z,99295.20
2023-09-26T22:37:47.814Z,99296.65
2023-09-26T22:40:15.200Z,99296.02
2023-09-26T22:42:42.876Z,99293.45
2023-09-26T22:45:11.485Z,99298.42
2023-09-26T22:47:39.029Z,99294.62
2023-09-26T22:50:06.745Z,99295.97
2023-09-26T22:52:35.027Z,99295.59
2023-09-26T22:55:03.857Z,99296.34
2023-09-26T22:57:31.249Z,99298.15
2023-09-26T22:59:58.636Z,99300.56
2023-09-26T23:02:26.221Z,99300.48
2023-09-26T23:04:53.632Z,99297.39
2023-09-26T23:07:20.984Z,99304.88
2023-09-26T23:09:48.501Z,99309.23
2023-09-26T23:12:15.954Z,99307.58
2023-09-26T23:14:43.371Z,99306.55
2023-09-26T23:17:12.180Z,99305.75
2023-09-26T23:19:39.887Z,99305.33
2023-09-26T23:22:07.314Z,99306.13
2023-09-26T23:24:34.789Z,99306.05
2023-09-26T23:27:02.258Z,99302.77
2023-09-26T23:29:29.694Z,99302.63
2023-09-26T23:31:57.185Z,99301.30
2023-09-26T23:34:25.615Z,99302.81
2023-09-26T23:36:54.276Z,99301.03
2023-09-26T23:39:23.191Z,99298.83
2023-09-26T23:41:50.524Z,99298.38
2023-09-26T23:44:18.103Z,99297.52
2023-09-26T23:46:45.607Z,99295.65
2023-09-26T23:49:12.929Z,99296.35
2023-09-26T23:51:40.674Z,99295.88
2023-09-26T23:54:08.652Z,99296.32
2023-09-26T23:56:36.025Z,99293.83
2023-09-26T23:59:03.557Z,99296.82
